Hlavní strana
METAR-TAF:

METAR-TAF

Letiště :

Winchester, Tennessee, Spojené státy americké

zeměpisná šířka: 35-10-39N, zeměpisná délka: 086-03-58W, výška: 298 m

Aktuální stav počasí

Zpráva byla vytvořena před 30 minutami, v 10:35 UTC
Bezvětří
Teplota 18°C
Vlhkost vzduchu 94%
Tlak 1021 hPa
Viditelnost: 16.1 km
Jasno

METAR: KBGF 241035Z AUTO 00000KT 10SM CLR 18/17 A3016 RMK A01

Čas: 06:05 (11:05 UTC)


TAF: chybějící

Stav a předpovědi počasí z více než 4 000 letišť (zprávy METAR a TAF).

Červené a žluté tečky na mapě představují dostupné meteorologické stanice.

Když kurzor umístíte na tečku, zobrazí se název stanice.

Pak kliknutím zobrazíte stav a předpověď počasí.

Chcete-li změnit mapu, kliknutím na zelené tlačítko se znaménkem +mapu přiblížíte, kliknutím na zelené tlačítko se znaménkem – mapu oddálíte a kliknutím na zelené šipky přejdete na sousední mapy.


METAR-TAF: